sensor_id;sensor_type;location;lat;lon;timestamp;P1;durP1;ratioP1;P2;durP2;ratioP2
39032;SDS011;24794;51.982;5.878;2023-09-12T00:00:27;24.30;;;18.42;;
39032;SDS011;24794;51.982;5.878;2023-09-12T00:01:27;26.15;;;17.83;;
39032;SDS011;24794;51.982;5.878;2023-09-12T00:02:32;25.48;;;17.88;;
39032;SDS011;24794;51.982;5.878;2023-09-12T00:03:33;24.60;;;18.73;;
39032;SDS011;24794;51.982;5.878;2023-09-12T00:04:34;29.27;;;19.08;;
39032;SDS011;24794;51.982;5.878;2023-09-12T00:05:34;26.92;;;19.35;;
39032;SDS011;24794;51.982;5.878;2023-09-12T00:06:35;29.08;;;18.85;;
39032;SDS011;24794;51.982;5.878;2023-09-12T00:07:35;24.63;;;17.35;;
39032;SDS011;24794;51.982;5.878;2023-09-12T00:08:38;23.75;;;17.02;;
39032;SDS011;24794;51.982;5.878;2023-09-12T00:09:38;23.17;;;17.13;;
39032;SDS011;24794;51.982;5.878;2023-09-12T00:10:39;24.45;;;17.55;;
39032;SDS011;24794;51.982;5.878;2023-09-12T00:11:40;22.13;;;16.63;;
39032;SDS011;24794;51.982;5.878;2023-09-12T00:12:41;22.67;;;16.02;;
39032;SDS011;24794;51.982;5.878;2023-09-12T00:13:41;22.92;;;16.75;;
39032;SDS011;24794;51.982;5.878;2023-09-12T00:14:42;24.98;;;17.15;;
39032;SDS011;24794;51.982;5.878;2023-09-12T00:15:42;23.00;;;16.45;;
39032;SDS011;24794;51.982;5.878;2023-09-12T00:16:43;21.00;;;16.60;;
39032;SDS011;24794;51.982;5.878;2023-09-12T00:17:43;22.83;;;17.27;;
39032;SDS011;24794;51.982;5.878;2023-09-12T00:18:44;25.65;;;17.27;;
39032;SDS011;24794;51.982;5.878;2023-09-12T00:19:44;24.02;;;17.23;;
39032;SDS011;24794;51.982;5.878;2023-09-12T00:20:45;22.73;;;17.13;;
39032;SDS011;24794;51.982;5.878;2023-09-12T00:21:45;22.23;;;16.55;;
39032;SDS011;24794;51.982;5.878;2023-09-12T00:22:46;22.50;;;16.67;;
39032;SDS011;24794;51.982;5.878;2023-09-12T00:23:46;24.15;;;18.02;;
39032;SDS011;24794;51.982;5.878;2023-09-12T00:24:47;32.42;;;18.65;;
39032;SDS011;24794;51.982;5.878;2023-09-12T00:25:48;24.17;;;17.70;;
39032;SDS011;24794;51.982;5.878;2023-09-12T00:26:50;22.30;;;16.70;;
39032;SDS011;24794;51.982;5.878;2023-09-12T00:27:50;23.67;;;17.42;;
39032;SDS011;24794;51.982;5.878;2023-09-12T00:28:51;24.23;;;18.10;;
39032;SDS011;24794;51.982;5.878;2023-09-12T00:29:51;26.45;;;18.67;;
39032;SDS011;24794;51.982;5.878;2023-09-12T00:30:52;26.20;;;18.45;;
39032;SDS011;24794;51.982;5.878;2023-09-12T00:31:53;26.60;;;18.65;;
39032;SDS011;24794;51.982;5.878;2023-09-12T00:32:53;29.30;;;18.77;;
39032;SDS011;24794;51.982;5.878;2023-09-12T00:33:53;23.48;;;18.05;;
39032;SDS011;24794;51.982;5.878;2023-09-12T00:34:54;26.63;;;19.20;;
39032;SDS011;24794;51.982;5.878;2023-09-12T00:35:54;25.17;;;18.05;;
39032;SDS011;24794;51.982;5.878;2023-09-12T00:36:55;25.70;;;18.95;;
39032;SDS011;24794;51.982;5.878;2023-09-12T00:37:56;26.80;;;18.38;;
39032;SDS011;24794;51.982;5.878;2023-09-12T00:38:57;25.67;;;18.35;;
39032;SDS011;24794;51.982;5.878;2023-09-12T00:39:57;24.65;;;18.45;;
39032;SDS011;24794;51.982;5.878;2023-09-12T00:40:58;26.13;;;19.25;;
39032;SDS011;24794;51.982;5.878;2023-09-12T00:41:58;27.17;;;20.30;;
39032;SDS011;24794;51.982;5.878;2023-09-12T00:42:59;25.48;;;18.52;;
39032;SDS011;24794;51.982;5.878;2023-09-12T00:43:59;27.55;;;18.80;;
39032;SDS011;24794;51.982;5.878;2023-09-12T00:45:00;26.45;;;18.67;;
39032;SDS011;24794;51.982;5.878;2023-09-12T00:46:00;26.02;;;18.88;;
39032;SDS011;24794;51.982;5.878;2023-09-12T00:47:01;26.52;;;18.63;;
39032;SDS011;24794;51.982;5.878;2023-09-12T00:48:03;23.20;;;17.52;;
39032;SDS011;24794;51.982;5.878;2023-09-12T00:49:04;24.13;;;17.35;;
39032;SDS011;24794;51.982;5.878;2023-09-12T00:50:07;24.35;;;17.38;;
39032;SDS011;24794;51.982;5.878;2023-09-12T00:51:09;23.08;;;18.58;;
39032;SDS011;24794;51.982;5.878;2023-09-12T00:52:10;23.27;;;17.60;;
39032;SDS011;24794;51.982;5.878;2023-09-12T00:53:12;22.75;;;16.80;;
39032;SDS011;24794;51.982;5.878;2023-09-12T00:54:13;22.00;;;16.70;;
39032;SDS011;24794;51.982;5.878;2023-09-12T00:55:14;21.42;;;16.73;;
39032;SDS011;24794;51.982;5.878;2023-09-12T00:56:14;25.13;;;17.20;;
39032;SDS011;24794;51.982;5.878;2023-09-12T00:57:15;21.80;;;16.63;;
39032;SDS011;24794;51.982;5.878;2023-09-12T00:58:16;24.20;;;17.20;;
39032;SDS011;24794;51.982;5.878;2023-09-12T00:59:17;27.05;;;18.60;;
39032;SDS011;24794;51.982;5.878;2023-09-12T01:00:18;25.10;;;17.35;;
39032;SDS011;24794;51.982;5.878;2023-09-12T01:01:19;26.55;;;18.35;;
39032;SDS011;24794;51.982;5.878;2023-09-12T01:02:20;26.55;;;18.75;;
39032;SDS011;24794;51.982;5.878;2023-09-12T01:03:22;26.13;;;18.02;;
39032;SDS011;24794;51.982;5.878;2023-09-12T01:04:22;24.05;;;17.17;;
39032;SDS011;24794;51.982;5.878;2023-09-12T01:05:23;30.35;;;19.05;;
39032;SDS011;24794;51.982;5.878;2023-09-12T01:06:24;26.98;;;18.42;;
39032;SDS011;24794;51.982;5.878;2023-09-12T01:07:27;24.95;;;18.10;;
39032;SDS011;24794;51.982;5.878;2023-09-12T01:08:28;26.75;;;17.85;;
39032;SDS011;24794;51.982;5.878;2023-09-12T01:09:29;25.63;;;18.50;;
39032;SDS011;24794;51.982;5.878;2023-09-12T01:10:29;24.10;;;18.27;;
39032;SDS011;24794;51.982;5.878;2023-09-12T01:11:30;24.77;;;17.40;;
39032;SDS011;24794;51.982;5.878;2023-09-12T01:12:31;25.08;;;17.48;;
39032;SDS011;24794;51.982;5.878;2023-09-12T01:13:32;22.23;;;17.55;;
39032;SDS011;24794;51.982;5.878;2023-09-12T01:14:32;25.17;;;17.73;;
39032;SDS011;24794;51.982;5.878;2023-09-12T01:15:33;25.50;;;18.13;;
39032;SDS011;24794;51.982;5.878;2023-09-12T01:16:33;27.40;;;17.92;;
39032;SDS011;24794;51.982;5.878;2023-09-12T01:17:34;26.35;;;18.77;;
39032;SDS011;24794;51.982;5.878;2023-09-12T01:18:35;24.70;;;17.95;;
39032;SDS011;24794;51.982;5.878;2023-09-12T01:19:36;27.40;;;18.70;;
39032;SDS011;24794;51.982;5.878;2023-09-12T01:20:37;22.85;;;18.42;;
39032;SDS011;24794;51.982;5.878;2023-09-12T01:27:22;23.83;;;16.92;;
39032;SDS011;24794;51.982;5.878;2023-09-12T01:28:29;25.00;;;17.00;;
39032;SDS011;24794;51.982;5.878;2023-09-12T01:29:31;22.90;;;17.30;;
39032;SDS011;24794;51.982;5.878;2023-09-12T01:30:32;23.45;;;17.52;;
39032;SDS011;24794;51.982;5.878;2023-09-12T01:31:34;26.45;;;18.50;;
39032;SDS011;24794;51.982;5.878;2023-09-12T01:32:37;26.63;;;17.85;;
39032;SDS011;24794;51.982;5.878;2023-09-12T01:33:39;24.42;;;17.60;;
39032;SDS011;24794;51.982;5.878;2023-09-12T01:34:40;24.67;;;18.08;;
39032;SDS011;24794;51.982;5.878;2023-09-12T01:35:40;22.70;;;16.75;;
39032;SDS011;24794;51.982;5.878;2023-09-12T01:36:41;24.05;;;17.42;;
39032;SDS011;24794;51.982;5.878;2023-09-12T01:37:41;28.60;;;19.27;;
39032;SDS011;24794;51.982;5.878;2023-09-12T01:38:42;24.00;;;17.65;;
39032;SDS011;24794;51.982;5.878;2023-09-12T01:39:42;25.10;;;18.38;;
39032;SDS011;24794;51.982;5.878;2023-09-12T01:40:47;27.92;;;18.13;;
39032;SDS011;24794;51.982;5.878;2023-09-12T01:41:49;27.00;;;17.98;;
39032;SDS011;24794;51.982;5.878;2023-09-12T01:42:53;22.95;;;17.38;;
39032;SDS011;24794;51.982;5.878;2023-09-12T01:43:55;22.10;;;17.17;;
39032;SDS011;24794;51.982;5.878;2023-09-12T01:44:57;27.45;;;17.48;;
39032;SDS011;24794;51.982;5.878;2023-09-12T01:46:01;27.08;;;18.05;;
39032;SDS011;24794;51.982;5.878;2023-09-12T01:47:02;24.80;;;17.92;;
39032;SDS011;24794;51.982;5.878;2023-09-12T01:48:05;25.83;;;17.92;;
39032;SDS011;24794;51.982;5.878;2023-09-12T01:49:07;27.25;;;18.00;;
39032;SDS011;24794;51.982;5.878;2023-09-12T01:50:10;26.55;;;18.17;;
39032;SDS011;24794;51.982;5.878;2023-09-12T01:51:13;25.45;;;18.13;;
39032;SDS011;24794;51.982;5.878;2023-09-12T01:52:15;24.55;;;17.77;;
39032;SDS011;24794;51.982;5.878;2023-09-12T01:53:16;24.13;;;18.17;;
39032;SDS011;24794;51.982;5.878;2023-09-12T01:54:18;24.20;;;17.13;;
39032;SDS011;24794;51.982;5.878;2023-09-12T01:55:20;23.52;;;17.42;;
39032;SDS011;24794;51.982;5.878;2023-09-12T01:56:22;23.10;;;17.02;;
39032;SDS011;24794;51.982;5.878;2023-09-12T01:57:23;22.02;;;16.95;;
39032;SDS011;24794;51.982;5.878;2023-09-12T01:58:25;23.42;;;17.15;;
39032;SDS011;24794;51.982;5.878;2023-09-12T01:59:26;24.38;;;17.35;;
39032;SDS011;24794;51.982;5.878;2023-09-12T02:00:28;23.27;;;18.52;;
39032;SDS011;24794;51.982;5.878;2023-09-12T02:01:29;24.67;;;18.30;;
39032;SDS011;24794;51.982;5.878;2023-09-12T02:02:30;25.77;;;17.75;;
39032;SDS011;24794;51.982;5.878;2023-09-12T02:03:30;23.83;;;17.35;;
39032;SDS011;24794;51.982;5.878;2023-09-12T02:04:31;24.70;;;18.33;;
39032;SDS011;24794;51.982;5.878;2023-09-12T02:05:31;24.83;;;17.63;;
39032;SDS011;24794;51.982;5.878;2023-09-12T02:06:32;25.50;;;18.15;;
39032;SDS011;24794;51.982;5.878;2023-09-12T02:07:33;28.35;;;18.35;;
39032;SDS011;24794;51.982;5.878;2023-09-12T02:08:37;25.90;;;17.48;;
39032;SDS011;24794;51.982;5.878;2023-09-12T02:09:38;23.48;;;17.13;;
39032;SDS011;24794;51.982;5.878;2023-09-12T02:10:38;25.23;;;18.13;;
39032;SDS011;24794;51.982;5.878;2023-09-12T02:11:39;25.35;;;18.63;;
39032;SDS011;24794;51.982;5.878;2023-09-12T02:12:40;25.55;;;18.40;;
39032;SDS011;24794;51.982;5.878;2023-09-12T02:13:41;23.95;;;18.08;;
39032;SDS011;24794;51.982;5.878;2023-09-12T02:14:41;23.05;;;17.60;;
39032;SDS011;24794;51.982;5.878;2023-09-12T02:15:42;22.65;;;17.42;;
39032;SDS011;24794;51.982;5.878;2023-09-12T02:16:42;23.77;;;17.45;;
39032;SDS011;24794;51.982;5.878;2023-09-12T02:17:43;22.70;;;17.70;;
39032;SDS011;24794;51.982;5.878;2023-09-12T02:18:43;22.00;;;17.35;;
39032;SDS011;24794;51.982;5.878;2023-09-12T02:19:46;25.45;;;18.50;;
39032;SDS011;24794;51.982;5.878;2023-09-12T02:20:47;24.20;;;18.00;;
39032;SDS011;24794;51.982;5.878;2023-09-12T02:21:48;24.13;;;16.20;;
39032;SDS011;24794;51.982;5.878;2023-09-12T02:22:49;23.98;;;16.60;;
39032;SDS011;24794;51.982;5.878;2023-09-12T02:23:49;22.42;;;16.52;;
39032;SDS011;24794;51.982;5.878;2023-09-12T02:24:50;23.35;;;16.60;;
39032;SDS011;24794;51.982;5.878;2023-09-12T02:25:51;22.85;;;17.17;;
39032;SDS011;24794;51.982;5.878;2023-09-12T02:26:51;24.70;;;16.67;;
39032;SDS011;24794;51.982;5.878;2023-09-12T02:27:52;22.55;;;16.73;;
39032;SDS011;24794;51.982;5.878;2023-09-12T02:28:52;23.50;;;16.55;;
39032;SDS011;24794;51.982;5.878;2023-09-12T02:29:53;25.85;;;17.70;;
39032;SDS011;24794;51.982;5.878;2023-09-12T02:30:53;23.70;;;17.45;;
39032;SDS011;24794;51.982;5.878;2023-09-12T02:31:55;24.80;;;17.60;;
39032;SDS011;24794;51.982;5.878;2023-09-12T02:32:56;24.67;;;17.48;;
39032;SDS011;24794;51.982;5.878;2023-09-12T02:33:56;24.58;;;17.65;;
39032;SDS011;24794;51.982;5.878;2023-09-12T02:34:57;23.13;;;16.92;;
39032;SDS011;24794;51.982;5.878;2023-09-12T02:35:58;22.05;;;16.63;;
39032;SDS011;24794;51.982;5.878;2023-09-12T02:36:59;23.88;;;16.60;;
39032;SDS011;24794;51.982;5.878;2023-09-12T02:37:59;20.75;;;15.60;;
39032;SDS011;24794;51.982;5.878;2023-09-12T02:39:00;23.75;;;16.30;;
39032;SDS011;24794;51.982;5.878;2023-09-12T02:40:01;21.63;;;16.33;;
39032;SDS011;24794;51.982;5.878;2023-09-12T02:41:03;22.27;;;16.02;;
39032;SDS011;24794;51.982;5.878;2023-09-12T02:42:04;23.70;;;16.27;;
39032;SDS011;24794;51.982;5.878;2023-09-12T02:43:05;23.95;;;16.52;;
39032;SDS011;24794;51.982;5.878;2023-09-12T02:44:05;22.50;;;17.27;;
39032;SDS011;24794;51.982;5.878;2023-09-12T02:45:07;23.42;;;16.80;;
39032;SDS011;24794;51.982;5.878;2023-09-12T02:46:07;23.85;;;17.17;;
39032;SDS011;24794;51.982;5.878;2023-09-12T02:47:08;21.70;;;16.55;;
39032;SDS011;24794;51.982;5.878;2023-09-12T02:48:08;25.33;;;17.40;;
39032;SDS011;24794;51.982;5.878;2023-09-12T02:49:09;21.27;;;15.93;;
39032;SDS011;24794;51.982;5.878;2023-09-12T02:50:10;22.88;;;16.83;;
39032;SDS011;24794;51.982;5.878;2023-09-12T02:51:11;25.30;;;16.80;;
39032;SDS011;24794;51.982;5.878;2023-09-12T02:52:12;20.83;;;16.50;;
39032;SDS011;24794;51.982;5.878;2023-09-12T02:53:12;25.75;;;17.98;;
39032;SDS011;24794;51.982;5.878;2023-09-12T02:54:13;24.48;;;17.05;;
39032;SDS011;24794;51.982;5.878;2023-09-12T02:55:13;25.50;;;18.05;;
39032;SDS011;24794;51.982;5.878;2023-09-12T02:56:14;25.92;;;17.10;;
39032;SDS011;24794;51.982;5.878;2023-09-12T02:57:14;22.05;;;16.55;;
39032;SDS011;24794;51.982;5.878;2023-09-12T02:58:15;22.13;;;15.63;;
39032;SDS011;24794;51.982;5.878;2023-09-12T02:59:15;24.85;;;16.00;;
39032;SDS011;24794;51.982;5.878;2023-09-12T03:00:16;21.58;;;15.65;;
39032;SDS011;24794;51.982;5.878;2023-09-12T03:01:17;22.50;;;16.15;;
39032;SDS011;24794;51.982;5.878;2023-09-12T03:02:19;21.15;;;16.02;;
39032;SDS011;24794;51.982;5.878;2023-09-12T03:03:19;23.13;;;17.05;;
39032;SDS011;24794;51.982;5.878;2023-09-12T03:04:20;23.00;;;16.08;;
39032;SDS011;24794;51.982;5.878;2023-09-12T03:05:21;24.77;;;17.10;;
39032;SDS011;24794;51.982;5.878;2023-09-12T03:06:21;24.08;;;17.20;;
39032;SDS011;24794;51.982;5.878;2023-09-12T03:07:22;25.02;;;17.20;;
39032;SDS011;24794;51.982;5.878;2023-09-12T03:08:22;24.08;;;16.77;;
39032;SDS011;24794;51.982;5.878;2023-09-12T03:09:23;22.02;;;16.45;;
39032;SDS011;24794;51.982;5.878;2023-09-12T03:10:24;22.98;;;17.20;;
39032;SDS011;24794;51.982;5.878;2023-09-12T03:11:27;24.92;;;17.25;;
39032;SDS011;24794;51.982;5.878;2023-09-12T03:12:28;20.40;;;15.80;;
39032;SDS011;24794;51.982;5.878;2023-09-12T03:13:28;20.77;;;16.08;;
39032;SDS011;24794;51.982;5.878;2023-09-12T03:14:29;22.05;;;16.15;;
39032;SDS011;24794;51.982;5.878;2023-09-12T03:15:29;22.65;;;15.32;;
39032;SDS011;24794;51.982;5.878;2023-09-12T03:16:30;20.80;;;14.55;;
39032;SDS011;24794;51.982;5.878;2023-09-12T03:17:30;21.52;;;15.25;;
39032;SDS011;24794;51.982;5.878;2023-09-12T03:18:31;27.67;;;16.27;;
39032;SDS011;24794;51.982;5.878;2023-09-12T03:19:32;23.13;;;15.90;;
39032;SDS011;24794;51.982;5.878;2023-09-12T03:20:33;23.05;;;16.98;;
39032;SDS011;24794;51.982;5.878;2023-09-12T03:21:37;20.80;;;15.63;;
39032;SDS011;24794;51.982;5.878;2023-09-12T03:22:38;22.40;;;16.38;;
39032;SDS011;24794;51.982;5.878;2023-09-12T03:23:39;24.05;;;16.33;;
39032;SDS011;24794;51.982;5.878;2023-09-12T03:24:39;24.90;;;17.80;;
39032;SDS011;24794;51.982;5.878;2023-09-12T03:25:40;24.15;;;17.35;;
39032;SDS011;24794;51.982;5.878;2023-09-12T03:26:40;23.55;;;17.25;;
39032;SDS011;24794;51.982;5.878;2023-09-12T03:27:41;27.20;;;17.05;;
39032;SDS011;24794;51.982;5.878;2023-09-12T03:28:42;24.08;;;17.88;;
39032;SDS011;24794;51.982;5.878;2023-09-12T03:29:42;24.30;;;17.13;;
39032;SDS011;24794;51.982;5.878;2023-09-12T03:30:47;20.48;;;15.85;;
39032;SDS011;24794;51.982;5.878;2023-09-12T03:31:47;20.23;;;15.77;;
39032;SDS011;24794;51.982;5.878;2023-09-12T03:32:48;21.38;;;15.50;;
39032;SDS011;24794;51.982;5.878;2023-09-12T03:33:48;24.33;;;15.35;;
39032;SDS011;24794;51.982;5.878;2023-09-12T03:34:50;25.05;;;15.38;;
39032;SDS011;24794;51.982;5.878;2023-09-12T03:35:50;22.15;;;15.25;;
39032;SDS011;24794;51.982;5.878;2023-09-12T03:36:51;22.42;;;15.50;;
39032;SDS011;24794;51.982;5.878;2023-09-12T03:37:51;20.70;;;14.98;;
39032;SDS011;24794;51.982;5.878;2023-09-12T03:38:52;19.58;;;15.07;;
39032;SDS011;24794;51.982;5.878;2023-09-12T03:39:53;21.70;;;15.70;;
39032;SDS011;24794;51.982;5.878;2023-09-12T03:40:53;20.80;;;16.17;;
39032;SDS011;24794;51.982;5.878;2023-09-12T03:41:54;21.70;;;16.23;;
39032;SDS011;24794;51.982;5.878;2023-09-12T03:42:54;22.70;;;16.27;;
39032;SDS011;24794;51.982;5.878;2023-09-12T03:43:55;23.88;;;16.48;;
39032;SDS011;24794;51.982;5.878;2023-09-12T03:44:55;24.52;;;17.58;;
39032;SDS011;24794;51.982;5.878;2023-09-12T03:45:56;25.48;;;17.77;;
39032;SDS011;24794;51.982;5.878;2023-09-12T03:46:56;25.75;;;16.95;;
39032;SDS011;24794;51.982;5.878;2023-09-12T03:47:58;25.60;;;17.08;;
39032;SDS011;24794;51.982;5.878;2023-09-12T03:48:58;26.27;;;17.38;;
39032;SDS011;24794;51.982;5.878;2023-09-12T03:49:59;26.98;;;18.58;;
39032;SDS011;24794;51.982;5.878;2023-09-12T03:50:59;23.20;;;17.95;;
39032;SDS011;24794;51.982;5.878;2023-09-12T03:52:01;24.92;;;17.60;;
39032;SDS011;24794;51.982;5.878;2023-09-12T03:53:01;24.52;;;17.02;;
39032;SDS011;24794;51.982;5.878;2023-09-12T03:54:02;25.38;;;17.52;;
39032;SDS011;24794;51.982;5.878;2023-09-12T03:55:02;23.70;;;17.05;;
39032;SDS011;24794;51.982;5.878;2023-09-12T03:56:03;24.33;;;17.70;;
39032;SDS011;24794;51.982;5.878;2023-09-12T03:57:04;25.00;;;18.25;;
39032;SDS011;24794;51.982;5.878;2023-09-12T03:58:04;24.13;;;16.95;;
39032;SDS011;24794;51.982;5.878;2023-09-12T03:59:05;22.67;;;15.88;;
39032;SDS011;24794;51.982;5.878;2023-09-12T04:00:06;21.83;;;16.13;;
39032;SDS011;24794;51.982;5.878;2023-09-12T04:01:08;24.00;;;16.73;;
39032;SDS011;24794;51.982;5.878;2023-09-12T04:02:08;21.60;;;16.13;;
39032;SDS011;24794;51.982;5.878;2023-09-12T04:03:09;24.17;;;16.23;;
39032;SDS011;24794;51.982;5.878;2023-09-12T04:04:09;22.85;;;15.85;;
39032;SDS011;24794;51.982;5.878;2023-09-12T04:05:10;23.88;;;16.30;;
39032;SDS011;24794;51.982;5.878;2023-09-12T04:06:10;25.15;;;16.15;;
39032;SDS011;24794;51.982;5.878;2023-09-12T04:07:11;29.45;;;17.98;;
39032;SDS011;24794;51.982;5.878;2023-09-12T04:08:12;22.25;;;15.88;;
39032;SDS011;24794;51.982;5.878;2023-09-12T04:09:12;29.30;;;18.25;;
39032;SDS011;24794;51.982;5.878;2023-09-12T04:10:13;23.70;;;17.42;;
39032;SDS011;24794;51.982;5.878;2023-09-12T04:11:13;28.10;;;18.88;;
39032;SDS011;24794;51.982;5.878;2023-09-12T04:12:14;26.38;;;19.20;;
39032;SDS011;24794;51.982;5.878;2023-09-12T04:13:14;27.95;;;17.90;;
39032;SDS011;24794;51.982;5.878;2023-09-12T04:14:15;29.17;;;17.60;;
39032;SDS011;24794;51.982;5.878;2023-09-12T04:15:15;26.90;;;17.63;;
39032;SDS011;24794;51.982;5.878;2023-09-12T04:16:16;26.73;;;17.30;;
39032;SDS011;24794;51.982;5.878;2023-09-12T04:17:16;26.77;;;17.95;;
39032;SDS011;24794;51.982;5.878;2023-09-12T04:18:17;28.02;;;17.67;;
39032;SDS011;24794;51.982;5.878;2023-09-12T04:19:17;26.90;;;17.98;;
39032;SDS011;24794;51.982;5.878;2023-09-12T04:20:18;25.30;;;18.15;;
39032;SDS011;24794;51.982;5.878;2023-09-12T04:21:18;24.98;;;18.83;;
39032;SDS011;24794;51.982;5.878;2023-09-12T04:22:19;25.85;;;18.30;;
39032;SDS011;24794;51.982;5.878;2023-09-12T04:23:19;25.23;;;18.10;;
39032;SDS011;24794;51.982;5.878;2023-09-12T04:24:20;25.10;;;18.55;;
39032;SDS011;24794;51.982;5.878;2023-09-12T04:25:21;22.10;;;17.20;;
39032;SDS011;24794;51.982;5.878;2023-09-12T04:26:21;23.10;;;17.10;;
39032;SDS011;24794;51.982;5.878;2023-09-12T04:27:22;24.13;;;18.17;;
39032;SDS011;24794;51.982;5.878;2023-09-12T04:28:22;25.27;;;18.20;;
39032;SDS011;24794;51.982;5.878;2023-09-12T04:29:26;25.27;;;17.90;;
39032;SDS011;24794;51.982;5.878;2023-09-12T04:30:27;23.92;;;17.08;;
39032;SDS011;24794;51.982;5.878;2023-09-12T04:31:28;23.88;;;16.75;;
39032;SDS011;24794;51.982;5.878;2023-09-12T04:32:28;24.67;;;17.33;;
39032;SDS011;24794;51.982;5.878;2023-09-12T04:33:29;21.17;;;16.48;;
39032;SDS011;24794;51.982;5.878;2023-09-12T04:34:30;21.52;;;16.52;;
39032;SDS011;24794;51.982;5.878;2023-09-12T04:35:34;22.48;;;16.13;;
39032;SDS011;24794;51.982;5.878;2023-09-12T04:36:35;25.30;;;17.05;;
39032;SDS011;24794;51.982;5.878;2023-09-12T04:37:35;24.05;;;16.75;;
39032;SDS011;24794;51.982;5.878;2023-09-12T04:38:37;23.42;;;17.10;;
39032;SDS011;24794;51.982;5.878;2023-09-12T04:39:37;22.73;;;16.30;;
39032;SDS011;24794;51.982;5.878;2023-09-12T04:40:38;21.90;;;16.35;;
39032;SDS011;24794;51.982;5.878;2023-09-12T04:41:39;22.60;;;16.88;;
39032;SDS011;24794;51.982;5.878;2023-09-12T04:42:40;24.48;;;17.58;;
39032;SDS011;24794;51.982;5.878;2023-09-12T04:43:40;24.10;;;17.30;;
39032;SDS011;24794;51.982;5.878;2023-09-12T04:44:41;22.85;;;16.95;;
39032;SDS011;24794;51.982;5.878;2023-09-12T04:45:42;22.48;;;16.92;;
39032;SDS011;24794;51.982;5.878;2023-09-12T04:46:42;21.83;;;16.48;;
39032;SDS011;24794;51.982;5.878;2023-09-12T04:47:43;22.20;;;16.70;;
39032;SDS011;24794;51.982;5.878;2023-09-12T04:48:43;26.98;;;17.55;;
39032;SDS011;24794;51.982;5.878;2023-09-12T04:49:44;22.80;;;17.52;;
39032;SDS011;24794;51.982;5.878;2023-09-12T04:50:44;22.42;;;17.17;;
39032;SDS011;24794;51.982;5.878;2023-09-12T04:51:45;25.75;;;17.55;;
39032;SDS011;24794;51.982;5.878;2023-09-12T04:52:46;27.23;;;16.98;;
39032;SDS011;24794;51.982;5.878;2023-09-12T04:53:46;29.17;;;17.77;;
39032;SDS011;24794;51.982;5.878;2023-09-12T04:54:51;24.45;;;17.70;;
39032;SDS011;24794;51.982;5.878;2023-09-12T04:55:52;27.52;;;18.15;;
39032;SDS011;24794;51.982;5.878;2023-09-12T04:56:53;25.33;;;18.00;;
39032;SDS011;24794;51.982;5.878;2023-09-12T04:57:54;25.67;;;18.67;;
39032;SDS011;24794;51.982;5.878;2023-09-12T04:58:54;26.15;;;18.08;;
39032;SDS011;24794;51.982;5.878;2023-09-12T04:59:55;31.48;;;20.45;;
39032;SDS011;24794;51.982;5.878;2023-09-12T05:00:55;32.70;;;21.83;;
39032;SDS011;24794;51.982;5.878;2023-09-12T05:01:56;31.70;;;20.63;;
39032;SDS011;24794;51.982;5.878;2023-09-12T05:02:56;30.20;;;20.00;;
39032;SDS011;24794;51.982;5.878;2023-09-12T05:03:57;33.00;;;20.55;;
39032;SDS011;24794;51.982;5.878;2023-09-12T05:04:57;32.30;;;21.20;;
39032;SDS011;24794;51.982;5.878;2023-09-12T05:05:58;34.92;;;21.55;;
39032;SDS011;24794;51.982;5.878;2023-09-12T05:06:58;31.10;;;20.63;;
39032;SDS011;24794;51.982;5.878;2023-09-12T05:07:59;28.65;;;19.58;;
39032;SDS011;24794;51.982;5.878;2023-09-12T05:08:59;31.35;;;19.90;;
39032;SDS011;24794;51.982;5.878;2023-09-12T05:10:00;31.95;;;19.50;;
39032;SDS011;24794;51.982;5.878;2023-09-12T05:11:01;36.08;;;20.17;;
39032;SDS011;24794;51.982;5.878;2023-09-12T05:12:02;34.50;;;20.08;;
39032;SDS011;24794;51.982;5.878;2023-09-12T05:13:03;33.88;;;20.90;;
39032;SDS011;24794;51.982;5.878;2023-09-12T05:14:04;39.08;;;21.80;;
39032;SDS011;24794;51.982;5.878;2023-09-12T05:15:05;37.80;;;22.20;;
39032;SDS011;24794;51.982;5.878;2023-09-12T05:16:06;38.95;;;21.23;;
39032;SDS011;24794;51.982;5.878;2023-09-12T05:17:06;36.55;;;21.65;;
39032;SDS011;24794;51.982;5.878;2023-09-12T05:18:07;36.45;;;22.23;;
39032;SDS011;24794;51.982;5.878;2023-09-12T05:19:07;34.10;;;22.15;;
39032;SDS011;24794;51.982;5.878;2023-09-12T05:20:08;35.08;;;21.33;;
39032;SDS011;24794;51.982;5.878;2023-09-12T05:21:09;35.80;;;22.98;;
39032;SDS011;24794;51.982;5.878;2023-09-12T05:22:09;37.72;;;21.75;;
39032;SDS011;24794;51.982;5.878;2023-09-12T05:23:10;43.83;;;24.95;;
39032;SDS011;24794;51.982;5.878;2023-09-12T05:24:11;36.80;;;25.00;;
39032;SDS011;24794;51.982;5.878;2023-09-12T05:25:11;35.38;;;23.30;;
39032;SDS011;24794;51.982;5.878;2023-09-12T05:26:12;44.10;;;24.25;;
39032;SDS011;24794;51.982;5.878;2023-09-12T05:27:12;53.72;;;25.65;;
39032;SDS011;24794;51.982;5.878;2023-09-12T05:28:13;49.55;;;27.27;;
39032;SDS011;24794;51.982;5.878;2023-09-12T05:29:16;50.25;;;26.67;;
39032;SDS011;24794;51.982;5.878;2023-09-12T05:30:16;45.83;;;28.83;;
39032;SDS011;24794;51.982;5.878;2023-09-12T05:31:17;42.97;;;27.05;;
39032;SDS011;24794;51.982;5.878;2023-09-12T05:32:18;45.10;;;26.48;;
39032;SDS011;24794;51.982;5.878;2023-09-12T05:33:18;52.55;;;27.85;;
39032;SDS011;24794;51.982;5.878;2023-09-12T05:34:19;47.97;;;27.75;;
39032;SDS011;24794;51.982;5.878;2023-09-12T05:35:19;44.55;;;27.63;;
39032;SDS011;24794;51.982;5.878;2023-09-12T05:36:20;38.20;;;25.05;;
39032;SDS011;24794;51.982;5.878;2023-09-12T05:37:20;38.15;;;24.27;;
39032;SDS011;24794;51.982;5.878;2023-09-12T05:38:21;37.80;;;22.58;;
39032;SDS011;24794;51.982;5.878;2023-09-12T05:39:22;35.53;;;21.00;;
39032;SDS011;24794;51.982;5.878;2023-09-12T05:40:23;31.00;;;19.98;;
39032;SDS011;24794;51.982;5.878;2023-09-12T05:41:23;34.30;;;22.48;;
39032;SDS011;24794;51.982;5.878;2023-09-12T05:42:24;33.97;;;21.30;;
39032;SDS011;24794;51.982;5.878;2023-09-12T05:43:24;34.60;;;20.63;;
39032;SDS011;24794;51.982;5.878;2023-09-12T05:44:25;34.03;;;22.25;;
39032;SDS011;24794;51.982;5.878;2023-09-12T05:45:26;38.83;;;24.58;;
39032;SDS011;24794;51.982;5.878;2023-09-12T05:46:29;35.95;;;23.38;;
39032;SDS011;24794;51.982;5.878;2023-09-12T05:47:30;34.28;;;21.88;;
39032;SDS011;24794;51.982;5.878;2023-09-12T05:48:30;31.27;;;20.90;;
39032;SDS011;24794;51.982;5.878;2023-09-12T05:49:31;32.50;;;20.73;;
39032;SDS011;24794;51.982;5.878;2023-09-12T05:50:34;45.70;;;23.80;;
39032;SDS011;24794;51.982;5.878;2023-09-12T05:51:34;34.42;;;22.08;;
39032;SDS011;24794;51.982;5.878;2023-09-12T05:52:35;37.55;;;23.77;;
39032;SDS011;24794;51.982;5.878;2023-09-12T05:53:36;35.15;;;22.15;;
39032;SDS011;24794;51.982;5.878;2023-09-12T05:54:36;35.78;;;22.90;;
39032;SDS011;24794;51.982;5.878;2023-09-12T05:55:37;37.58;;;21.77;;
39032;SDS011;24794;51.982;5.878;2023-09-12T05:56:38;35.50;;;22.05;;
39032;SDS011;24794;51.982;5.878;2023-09-12T05:57:38;37.17;;;21.42;;
39032;SDS011;24794;51.982;5.878;2023-09-12T05:58:39;33.15;;;20.88;;
39032;SDS011;24794;51.982;5.878;2023-09-12T05:59:42;35.90;;;22.50;;
39032;SDS011;24794;51.982;5.878;2023-09-12T06:00:43;41.42;;;24.65;;
39032;SDS011;24794;51.982;5.878;2023-09-12T06:01:43;39.55;;;24.70;;